Terminal Aerodrome Forecast
Issued by NWS Sioux Falls, SD

Home | Current Version | Previous Version | Graphics & Text | Print | Product List | Glossary On
Versions: 1 2 3 4 5 6 7 8 9 10 11 12 13 14
000
FTUS43 KFSD 200532
TAFSUX
TAF
KSUX 200532Z 2006/2106 14006KT P6SM VCTS BKN080CB
      TEMPO 2006/2007 15016G27KT
     FM200800 14007KT P6SM SCT100 OVC200
     FM201200 15005KT P6SM BKN100
     FM201900 11005KT P6SM SCT100
     FM202300 06006KT P6SM VCTS BKN070CB=

USA.gov is the U.S. government's official web portal to all federal, state and local government web resources and services.